Time;durP1;ratioP1;P1;durP2;ratioP2;P2;SDS_P1;SDS_P2;PMS_P1;PMS_P2;Temp;Humidity;BMP_temperature;BMP_pressure;BME280_temperature;BME280_humidity;BME280_pressure;Samples;Min_cycle;Max_cycle;Signal;HPM_P1;HPM_P2
2024/02/24 00:01:50;;;;;;;1999.90;999.90;;;6.50;99.90;;;;;;5062531;28;20017;-80
2024/02/24 00:04:16;;;;;;;1999.90;999.90;;;6.40;99.90;;;;;;5063929;28;20096;-79
2024/02/24 00:06:42;;;;;;;1999.90;999.90;;;6.40;99.90;;;;;;5051653;28;20024;-84
2024/02/24 00:09:08;;;;;;;1999.90;999.90;;;6.30;99.90;;;;;;5053556;28;20384;-81
2024/02/24 00:11:34;;;;;;;1999.90;999.90;;;6.20;99.90;;;;;;5054312;28;20112;-79
2024/02/24 00:14:00;;;;;;;1999.90;999.90;;;6.20;99.90;;;;;;5051795;28;20060;-79
2024/02/24 00:16:26;;;;;;;1999.90;999.90;;;6.10;99.90;;;;;;5059785;28;20037;-79
2024/02/24 00:18:55;;;;;;;1999.90;999.90;;;6.00;99.90;;;;;;5055107;28;20053;-80
2024/02/24 00:21:21;;;;;;;1999.90;999.90;;;6.00;99.90;;;;;;5056756;28;20016;-79
2024/02/24 00:23:47;;;;;;;1999.90;999.90;;;6.00;99.90;;;;;;5065402;28;20049;-79
2024/02/24 00:26:13;;;;;;;1999.90;999.90;;;6.00;99.90;;;;;;5057053;28;20025;-79
2024/02/24 00:28:38;;;;;;;1999.90;999.90;;;6.00;99.90;;;;;;5055136;28;20075;-79
2024/02/24 00:31:04;;;;;;;1999.90;999.90;;;6.00;99.90;;;;;;5067104;28;20033;-84
2024/02/24 00:33:29;;;;;;;1999.90;999.90;;;6.00;99.90;;;;;;5055191;28;20402;-79
2024/02/24 00:35:55;;;;;;;1999.90;999.90;;;6.10;99.90;;;;;;5056429;28;20025;-78
2024/02/24 00:38:21;;;;;;;1999.90;999.90;;;6.10;99.90;;;;;;5056606;28;20406;-83
2024/02/24 00:40:46;;;;;;;1999.90;999.90;;;6.10;99.90;;;;;;5054926;28;20028;-79
2024/02/24 00:43:12;;;;;;;1999.90;999.90;;;6.10;99.90;;;;;;5059284;28;20052;-79
2024/02/24 00:45:38;;;;;;;1999.90;999.90;;;6.10;99.90;;;;;;5057773;28;20410;-83
2024/02/24 00:48:04;;;;;;;1999.90;999.90;;;6.20;99.90;;;;;;5056132;28;20017;-79
2024/02/24 00:50:30;;;;;;;1999.90;999.90;;;6.30;99.90;;;;;;5063681;28;20018;-79
2024/02/24 00:52:56;;;;;;;1999.90;999.90;;;6.30;99.90;;;;;;5057314;28;20055;-79
2024/02/24 00:55:22;;;;;;;1999.90;999.90;;;6.30;99.90;;;;;;5055984;28;20017;-79
2024/02/24 00:57:48;;;;;;;1999.90;999.90;;;6.30;99.90;;;;;;5064263;28;20036;-83
2024/02/24 01:00:15;;;;;;;1999.90;999.90;;;6.30;99.90;;;;;;5057493;28;20123;-83
2024/02/24 01:02:41;;;;;;;1999.90;999.90;;;6.30;99.90;;;;;;5054573;28;20521;-79
2024/02/24 01:05:07;;;;;;;1999.90;999.90;;;6.30;99.90;;;;;;5063096;28;20013;-80
2024/02/24 01:07:32;;;;;;;1999.90;999.90;;;6.40;99.90;;;;;;5057386;28;20032;-83
2024/02/24 01:09:58;;;;;;;1999.90;999.90;;;6.40;99.90;;;;;;5054434;28;20028;-79
2024/02/24 01:12:24;;;;;;;1999.90;999.90;;;6.50;99.90;;;;;;5057374;28;20025;-79
2024/02/24 01:14:50;;;;;;;1999.90;999.90;;;6.50;99.90;;;;;;5055220;28;20078;-79
2024/02/24 01:17:15;;;;;;;1999.90;999.90;;;6.40;99.90;;;;;;5053923;28;20045;-83
2024/02/24 01:19:41;;;;;;;1999.90;999.90;;;6.40;99.90;;;;;;5058579;28;20041;-79
2024/02/24 01:22:07;;;;;;;1999.90;999.90;;;6.40;99.90;;;;;;5054605;28;20025;-79
2024/02/24 01:24:33;;;;;;;1999.90;999.90;;;6.40;99.90;;;;;;5062932;28;20033;-81
2024/02/24 01:26:59;;;;;;;1999.90;999.90;;;6.40;99.90;;;;;;5059818;28;20482;-78
2024/02/24 01:29:24;;;;;;;1999.90;999.90;;;6.40;99.90;;;;;;5053557;28;20025;-78
2024/02/24 01:31:50;;;;;;;1999.90;999.90;;;6.50;99.90;;;;;;5060547;28;20005;-81
2024/02/24 01:34:16;;;;;;;1999.90;999.90;;;6.60;99.90;;;;;;5055719;28;20495;-83
2024/02/24 01:36:42;;;;;;;1999.90;999.90;;;6.60;99.90;;;;;;5053837;28;20017;-79
2024/02/24 01:39:08;;;;;;;1999.90;999.90;;;6.70;99.90;;;;;;5059097;28;20449;-78
2024/02/24 01:41:34;;;;;;;1999.90;999.90;;;6.90;99.90;;;;;;5055088;28;20028;-83
2024/02/24 01:44:00;;;;;;;1999.90;999.90;;;6.90;99.90;;;;;;5053542;28;20025;-79
2024/02/24 01:46:26;;;;;;;1999.90;999.90;;;7.10;99.90;;;;;;5066574;28;20010;-81
2024/02/24 01:48:52;;;;;;;1999.90;999.90;;;7.10;99.90;;;;;;5055200;28;20021;-79
2024/02/24 01:51:21;;;;;;;1999.90;999.90;;;7.20;99.90;;;;;;5053125;28;20068;-79
2024/02/24 01:53:47;;;;;;;1999.90;999.90;;;7.20;99.90;;;;;;5055058;28;20506;-83
2024/02/24 01:56:13;;;;;;;1999.90;999.90;;;7.10;99.90;;;;;;5055073;28;20052;-83
2024/02/24 01:58:39;;;;;;;1999.90;999.90;;;7.10;99.90;;;;;;5055207;28;20148;-78
2024/02/24 02:01:08;;;;;;;1999.90;999.90;;;7.00;99.90;;;;;;5055689;28;20033;-78
2024/02/24 02:03:35;;;;;;;1999.90;999.90;;;6.90;99.90;;;;;;5054664;28;20120;-79
2024/02/24 02:06:02;;;;;;;1999.90;999.90;;;6.80;99.90;;;;;;5059559;28;20013;-82
2024/02/24 02:08:28;;;;;;;1999.90;999.90;;;6.70;99.90;;;;;;5054935;28;20032;-82
2024/02/24 02:10:57;;;;;;;1999.90;999.90;;;6.60;99.90;;;;;;5054871;28;20395;-82
2024/02/24 02:13:23;;;;;;;1999.90;999.90;;;6.50;99.90;;;;;;5061449;28;20029;-79
2024/02/24 02:15:56;;;;;;;1999.90;999.90;;;6.40;99.90;;;;;;5054097;28;20082;-79
2024/02/24 02:18:22;;;;;;;;;;;6.30;99.90;;;;;;5053278;28;20094;-83
2024/02/24 02:20:52;;;;;;;1999.90;999.90;;;6.20;99.90;;;;;;5054687;28;20333;-79
2024/02/24 02:23:18;;;;;;;1999.90;999.90;;;6.20;99.90;;;;;;5049589;28;20075;-78
2024/02/24 02:25:43;;;;;;;1999.90;999.90;;;6.20;99.90;;;;;;5054572;28;20013;-81
2024/02/24 02:28:09;;;;;;;1999.90;999.90;;;6.20;99.90;;;;;;5041131;28;20033;-79
2024/02/24 02:30:35;;;;;;;1999.90;999.90;;;6.20;99.90;;;;;;5052934;28;20052;-79
2024/02/24 02:33:01;;;;;;;1999.90;999.90;;;6.20;99.90;;;;;;5058469;28;20081;-79
2024/02/24 02:35:31;;;;;;;1999.90;999.90;;;6.30;99.90;;;;;;5053376;28;20056;-79
2024/02/24 02:37:57;;;;;;;1999.90;999.90;;;6.40;99.90;;;;;;5052699;28;20079;-79
2024/02/24 02:40:22;;;;;;;1999.90;999.90;;;6.50;99.90;;;;;;5054914;28;20029;-79
2024/02/24 02:42:48;;;;;;;1999.90;999.90;;;6.50;99.90;;;;;;5052694;28;20033;-83
2024/02/24 02:45:14;;;;;;;1999.90;999.90;;;6.50;99.90;;;;;;5053690;28;20029;-83
2024/02/24 02:47:39;;;;;;;1999.90;999.90;;;6.50;99.90;;;;;;5055699;28;20025;-79
2024/02/24 02:50:07;;;;;;;1999.90;999.90;;;6.50;99.90;;;;;;5052441;28;20029;-78
2024/02/24 02:52:34;;;;;;;1999.90;999.90;;;6.50;99.90;;;;;;5059499;28;20037;-79
2024/02/24 02:54:59;;;;;;;1999.90;999.90;;;6.60;99.90;;;;;;5053876;28;20527;-83
2024/02/24 02:57:25;;;;;;;1999.90;999.90;;;6.60;99.90;;;;;;5052386;28;20055;-83
2024/02/24 02:59:51;;;;;;;1999.90;999.90;;;6.70;99.90;;;;;;5053847;28;20052;-83
2024/02/24 03:02:17;;;;;;;1999.90;999.90;;;6.80;99.90;;;;;;5052455;28;20025;-79
2024/02/24 03:04:42;;;;;;;1999.90;999.90;;;6.90;99.90;;;;;;5052344;28;20065;-79
2024/02/24 03:07:08;;;;;;;1999.90;999.90;;;6.90;99.90;;;;;;5056694;28;20123;-79
2024/02/24 03:09:34;;;;;;;1999.90;999.90;;;6.90;99.90;;;;;;5053691;28;20056;-79
2024/02/24 03:11:59;;;;;;;1999.90;999.90;;;7.10;99.90;;;;;;5060180;28;20009;-82
2024/02/24 03:14:25;;;;;;;1999.90;999.90;;;7.10;99.90;;;;;;5053790;28;20090;-78
2024/02/24 03:16:53;;;;;;;1999.90;999.90;;;7.20;99.90;;;;;;5051372;28;20061;-83
2024/02/24 03:19:18;;;;;;;1999.90;999.90;;;7.20;99.90;;;;;;5061586;28;20029;-82
2024/02/24 03:21:44;;;;;;;1999.90;999.90;;;7.20;99.90;;;;;;5057672;28;20096;-79
2024/02/24 03:24:09;;;;;;;1999.90;999.90;;;7.20;99.90;;;;;;5048455;28;20029;-79
2024/02/24 03:26:35;;;;;;;1999.90;999.90;;;7.20;99.90;;;;;;5069034;28;20025;-79
2024/02/24 03:29:01;;;;;;;1999.90;999.90;;;7.20;99.90;;;;;;5052911;28;20029;-83
2024/02/24 03:31:26;;;;;;;1999.90;999.90;;;7.20;99.90;;;;;;5033674;28;20029;-80
2024/02/24 03:33:55;;;;;;;1999.90;999.90;;;7.20;99.90;;;;;;5050292;28;20029;-79
2024/02/24 03:36:21;;;;;;;1999.90;999.90;;;7.20;99.90;;;;;;5065182;28;20071;-82
2024/02/24 03:38:46;;;;;;;1999.90;999.90;;;7.20;99.90;;;;;;5033517;28;20030;-82
2024/02/24 03:41:12;;;;;;;1999.90;999.90;;;7.10;99.90;;;;;;5054755;28;20084;-79
2024/02/24 03:43:38;;;;;;;1999.90;999.90;;;7.10;99.90;;;;;;5033432;28;20488;-80
2024/02/24 03:46:05;;;;;;;1999.90;999.90;;;7.10;99.90;;;;;;5039013;28;20038;-79
2024/02/24 03:48:32;;;;;;;1999.90;999.90;;;7.10;99.90;;;;;;5041834;28;20087;-79
2024/02/24 03:50:58;;;;;;;1999.90;999.90;;;7.00;99.90;;;;;;5049861;28;20033;-80
2024/02/24 03:53:25;;;;;;;1999.90;999.90;;;7.00;99.90;;;;;;5072232;28;20025;-79
2024/02/24 03:55:51;;;;;;;1999.90;999.90;;;6.90;99.90;;;;;;5052293;28;20021;-82
2024/02/24 03:58:18;;;;;;;1999.90;999.90;;;6.80;99.90;;;;;;5052507;28;20381;-79
2024/02/24 04:00:44;;;;;;;1999.90;999.90;;;6.80;99.90;;;;;;5038737;28;20554;-79
2024/02/24 04:03:09;;;;;;;1999.90;999.90;;;6.70;99.90;;;;;;5052406;28;20029;-79
2024/02/24 04:05:35;;;;;;;1999.90;999.90;;;6.70;99.90;;;;;;5052187;28;20056;-79
2024/02/24 04:08:01;;;;;;;1999.90;999.90;;;6.60;99.90;;;;;;5058833;28;20010;-82
2024/02/24 04:10:26;;;;;;;1999.90;999.90;;;6.60;99.90;;;;;;5068988;28;20052;-79
2024/02/24 04:12:52;;;;;;;1999.90;999.90;;;6.60;99.90;;;;;;5055209;28;20021;-83
2024/02/24 04:15:21;;;;;;;1999.90;999.90;;;6.60;99.90;;;;;;5064786;28;20032;-79
2024/02/24 04:17:50;;;;;;;1999.90;999.90;;;6.60;99.90;;;;;;5055161;28;20404;-80
2024/02/24 04:20:17;;;;;;;1999.90;999.90;;;6.60;99.90;;;;;;5055421;28;20064;-79
2024/02/24 04:22:43;;;;;;;1999.90;999.90;;;6.70;99.90;;;;;;5077484;28;20068;-82
2024/02/24 04:25:09;;;;;;;1999.90;999.90;;;6.70;99.90;;;;;;5057729;28;20560;-79
2024/02/24 04:27:35;;;;;;;1999.90;999.90;;;6.80;99.90;;;;;;5056373;28;20074;-78
2024/02/24 04:30:01;;;;;;;1999.90;999.90;;;6.80;99.90;;;;;;5064353;28;20005;-79
2024/02/24 04:32:28;;;;;;;1999.90;999.90;;;6.70;99.90;;;;;;5055413;28;20021;-79
2024/02/24 04:34:54;;;;;;;1999.90;999.90;;;6.70;99.90;;;;;;5055076;28;20021;-79
2024/02/24 04:37:20;;;;;;;1999.90;999.90;;;6.80;99.90;;;;;;5058170;28;20438;-79
2024/02/24 04:39:46;;;;;;;1999.90;999.90;;;6.80;99.90;;;;;;5056089;28;20037;-81
2024/02/24 04:42:12;;;;;;;1999.90;999.90;;;6.90;99.90;;;;;;5056658;28;20031;-78
2024/02/24 04:44:40;;;;;;;1999.90;999.90;;;7.00;99.90;;;;;;5059389;28;20082;-79
2024/02/24 04:47:06;;;;;;;1999.90;999.90;;;7.10;99.90;;;;;;5055008;28;20028;-79
2024/02/24 04:49:32;;;;;;;1999.90;999.90;;;7.10;99.90;;;;;;5064880;28;20032;-79
2024/02/24 04:51:58;;;;;;;1999.90;999.90;;;7.20;99.90;;;;;;5057245;28;20045;-79
2024/02/24 04:54:24;;;;;;;1999.90;999.90;;;7.20;99.90;;;;;;5054740;28;20039;-79
2024/02/24 04:56:50;;;;;;;1999.90;999.90;;;7.30;99.90;;;;;;5061247;28;20024;-79
2024/02/24 04:59:16;;;;;;;1999.90;999.90;;;7.30;99.90;;;;;;5057064;28;20033;-78
2024/02/24 05:01:42;;;;;;;1999.90;999.90;;;7.30;99.90;;;;;;5055849;28;20461;-79
2024/02/24 05:04:08;;;;;;;1999.90;999.90;;;7.30;99.90;;;;;;5060009;28;20064;-79
2024/02/24 05:06:34;;;;;;;1999.90;999.90;;;7.30;99.90;;;;;;5054634;28;20028;-83
2024/02/24 05:08:59;;;;;;;1999.90;999.90;;;7.30;99.90;;;;;;5054491;28;20075;-78
2024/02/24 05:11:25;;;;;;;1999.90;999.90;;;7.40;99.90;;;;;;5068656;28;20029;-79
2024/02/24 05:13:51;;;;;;;1999.90;999.90;;;7.40;99.90;;;;;;5054269;28;20552;-79
2024/02/24 05:16:16;;;;;;;1999.90;999.90;;;7.30;99.90;;;;;;5053845;28;20025;-78
2024/02/24 05:18:42;;;;;;;1999.90;999.90;;;7.30;99.90;;;;;;5063464;28;20063;-79
2024/02/24 05:21:08;;;;;;;1999.90;999.90;;;7.30;99.90;;;;;;5055473;28;20029;-83
2024/02/24 05:23:33;;;;;;;1999.90;999.90;;;7.30;99.90;;;;;;5055448;28;20441;-78
2024/02/24 05:25:59;;;;;;;1999.90;999.90;;;7.30;99.90;;;;;;5057305;28;20033;-79
2024/02/24 05:28:26;;;;;;;1999.90;999.90;;;7.30;99.90;;;;;;5054840;28;20033;-78
2024/02/24 05:30:52;;;;;;;1999.90;999.90;;;7.30;99.90;;;;;;5057228;28;20119;-78
2024/02/24 05:33:18;;;;;;;1999.90;999.90;;;7.30;99.90;;;;;;5054221;28;20035;-82
2024/02/24 05:35:44;;;;;;;1999.90;999.90;;;7.30;99.90;;;;;;5053962;28;20516;-83
2024/02/24 05:38:09;;;;;;;1999.90;999.90;;;7.30;99.90;;;;;;5056948;28;20063;-78
2024/02/24 05:40:35;;;;;;;1999.90;999.90;;;7.30;99.90;;;;;;5053861;28;20049;-78
2024/02/24 05:43:01;;;;;;;1999.90;999.90;;;7.30;99.90;;;;;;5054866;28;20060;-78
2024/02/24 05:45:26;;;;;;;1999.90;999.90;;;7.30;99.90;;;;;;5057045;28;20037;-78
2024/02/24 05:47:52;;;;;;;1999.90;999.90;;;7.30;99.90;;;;;;5053675;28;20399;-82
2024/02/24 05:50:20;;;;;;;1999.90;999.90;;;7.30;99.90;;;;;;5058262;28;20043;-82
2024/02/24 05:52:46;;;;;;;1999.90;999.90;;;7.30;99.90;;;;;;5053428;28;20116;-78
2024/02/24 05:55:14;;;;;;;1999.90;999.90;;;7.30;99.90;;;;;;5053698;28;20553;-78
2024/02/24 05:57:40;;;;;;;1999.90;999.90;;;7.20;99.90;;;;;;5055310;28;20032;-82
2024/02/24 06:00:10;;;;;;;1999.90;999.90;;;7.20;99.90;;;;;;5054643;28;20032;-82
2024/02/24 06:02:37;;;;;;;1999.90;999.90;;;7.10;99.90;;;;;;5056827;28;20533;-78
2024/02/24 06:05:02;;;;;;;1999.90;999.90;;;7.00;99.90;;;;;;5053276;28;20029;-79
2024/02/24 06:07:28;;;;;;;1999.90;999.90;;;7.00;99.90;;;;;;5052494;28;20514;-82
2024/02/24 06:09:54;;;;;;;1999.90;999.90;;;7.00;99.90;;;;;;5057647;28;20396;-78
2024/02/24 06:12:20;;;;;;;1999.90;999.90;;;7.00;99.90;;;;;;5053745;28;20067;-82
2024/02/24 06:14:45;;;;;;;1999.90;999.90;;;7.00;99.90;;;;;;5054741;28;20426;-78
2024/02/24 06:17:11;;;;;;;1999.90;999.90;;;6.90;99.90;;;;;;5062096;28;20045;-78
2024/02/24 06:19:37;;;;;;;1999.90;999.90;;;6.90;99.90;;;;;;5052908;28;20029;-82
2024/02/24 06:22:02;;;;;;;1999.90;999.90;;;6.90;99.90;;;;;;5052960;28;20013;-78
2024/02/24 06:24:28;;;;;;;1999.90;999.90;;;6.90;99.90;;;;;;5054243;28;20021;-79
2024/02/24 06:26:54;;;;;;;1999.90;999.90;;;6.90;99.90;;;;;;5054269;28;20103;-78
2024/02/24 06:29:19;;;;;;;1999.90;999.90;;;7.00;99.90;;;;;;5061545;28;20033;-78
2024/02/24 06:31:45;;;;;;;1999.90;999.90;;;7.00;99.90;;;;;;5052800;28;20020;-82
2024/02/24 06:34:10;;;;;;;1999.90;999.90;;;7.00;99.90;;;;;;5052970;28;20541;-82
2024/02/24 06:36:37;;;;;;;1999.90;999.90;;;6.90;99.90;;;;;;5067096;28;20036;-80
2024/02/24 06:39:02;;;;;;;1999.90;999.90;;;7.00;99.90;;;;;;5054151;28;20112;-78
2024/02/24 06:41:28;;;;;;;1999.90;999.90;;;7.00;99.90;;;;;;5052822;28;20534;-79
2024/02/24 06:43:54;;;;;;;1999.90;999.90;;;7.10;99.90;;;;;;5053791;28;20029;-78
2024/02/24 06:46:19;;;;;;;1999.90;999.90;;;7.20;99.90;;;;;;5053906;28;20096;-78
2024/02/24 06:48:45;;;;;;;1999.90;999.90;;;7.20;99.90;;;;;;5053610;28;20025;-78
2024/02/24 06:51:12;;;;;;;1999.90;999.90;;;7.20;99.90;;;;;;5052470;28;20021;-79
2024/02/24 06:53:38;;;;;;;1999.90;999.90;;;7.20;99.90;;;;;;5052932;28;20025;-82
2024/02/24 06:56:10;;;;;;;1999.90;999.90;;;7.30;99.90;;;;;;5055778;28;20444;-82
2024/02/24 06:58:37;;;;;;;1999.90;999.90;;;7.20;99.90;;;;;;5053435;28;20086;-82
2024/02/24 07:01:03;;;;;;;1999.90;999.90;;;7.20;99.90;;;;;;5053384;28;20029;-78
2024/02/24 07:03:32;;;;;;;1999.90;999.90;;;7.20;99.90;;;;;;5054912;28;20083;-78
2024/02/24 07:06:01;;;;;;;1999.90;999.90;;;7.20;99.90;;;;;;5052240;28;20024;-78
2024/02/24 07:08:27;;;;;;;1999.90;999.90;;;7.30;99.90;;;;;;5054758;28;20115;-79
2024/02/24 07:10:53;;;;;;;1999.90;999.90;;;7.30;99.90;;;;;;5052234;28;20036;-79
2024/02/24 07:13:18;;;;;;;1999.90;999.90;;;7.30;99.90;;;;;;5053641;28;20066;-78
2024/02/24 07:15:44;;;;;;;1999.90;999.90;;;7.40;99.90;;;;;;5059444;28;20127;-82
2024/02/24 07:18:10;;;;;;;1999.90;999.90;;;7.40;99.90;;;;;;5051657;28;20049;-79
2024/02/24 07:20:35;;;;;;;1999.90;999.90;;;7.40;99.90;;;;;;5052662;28;20476;-78
2024/02/24 07:23:01;;;;;;;1999.90;999.90;;;7.40;99.90;;;;;;5050894;28;20043;-79
2024/02/24 07:25:26;;;;;;;1999.90;999.90;;;7.40;99.90;;;;;;5033235;28;20377;-79
2024/02/24 07:27:52;;;;;;;1999.90;999.90;;;7.40;99.90;;;;;;5049056;28;20036;-79
2024/02/24 07:30:18;;;;;;;1999.90;999.90;;;7.50;99.90;;;;;;5054759;28;20060;-78
2024/02/24 07:32:43;;;;;;;1999.90;999.90;;;7.60;99.90;;;;;;5052218;28;20068;-82
2024/02/24 07:35:09;;;;;;;1999.90;999.90;;;7.60;99.90;;;;;;5061145;28;20079;-79
2024/02/24 07:37:34;;;;;;;1999.90;999.90;;;7.60;99.90;;;;;;5053055;28;20024;-79
2024/02/24 07:40:00;;;;;;;1999.90;999.90;;;7.80;99.90;;;;;;5051806;28;20029;-79
2024/02/24 07:42:26;;;;;;;1999.90;999.90;;;7.80;99.90;;;;;;5057606;28;20526;-79
2024/02/24 07:44:51;;;;;;;1999.90;999.90;;;7.90;99.90;;;;;;5051933;28;20029;-83
2024/02/24 07:47:17;;;;;;;1999.90;999.90;;;8.00;99.90;;;;;;5053153;28;20478;-78
2024/02/24 07:49:43;;;;;;;1999.90;999.90;;;8.10;99.90;;;;;;5059518;28;20036;-79
2024/02/24 07:52:09;;;;;;;1999.90;999.90;;;8.10;99.90;;;;;;5051659;28;20113;-82
2024/02/24 07:54:35;;;;;;;1999.90;999.90;;;8.20;99.90;;;;;;5051657;28;20120;-82
2024/02/24 07:57:01;;;;;;;1999.90;999.90;;;8.30;99.90;;;;;;5052895;28;20497;-79
2024/02/24 07:59:26;;;;;;;1999.90;999.90;;;8.40;99.90;;;;;;5051586;28;20040;-79
2024/02/24 08:01:52;;;;;;;1999.90;999.90;;;8.50;99.90;;;;;;5060598;28;20068;-83
2024/02/24 08:04:18;;;;;;;1999.90;999.90;;;8.80;99.90;;;;;;5051724;28;20127;-79
2024/02/24 08:06:43;;;;;;;1999.90;999.90;;;9.00;99.90;;;;;;5051603;28;20033;-83
2024/02/24 08:09:09;;;;;;;1999.90;999.90;;;9.50;99.90;;;;;;5065213;28;20013;-82
2024/02/24 08:11:39;;;;;;;1999.90;999.90;;;11.50;99.90;;;;;;5051364;28;20028;-79
2024/02/24 08:14:09;;;;;;;1999.90;999.90;;;11.50;99.90;;;;;;5051618;28;20028;-82
2024/02/24 08:16:35;;;;;;;1999.90;999.90;;;11.10;99.90;;;;;;5059238;28;20106;-83
2024/02/24 08:19:01;;;;;;;1999.90;999.90;;;12.50;99.90;;;;;;5052572;28;20045;-79
2024/02/24 08:21:31;;;;;;;1999.90;999.90;;;13.00;99.90;;;;;;5052825;28;20450;-83
2024/02/24 08:23:57;;;;;;;1999.90;999.90;;;13.50;99.90;;;;;;5051391;28;20029;-79
2024/02/24 08:26:22;;;;;;;1999.90;999.90;;;12.60;99.90;;;;;;5033282;28;20025;-83
2024/02/24 08:28:48;;;;;;;1999.90;999.90;;;10.60;99.90;;;;;;5031702;28;20032;-83
2024/02/24 08:31:14;;;;;;;1999.90;999.90;;;9.70;99.90;;;;;;5034176;28;20095;-83
2024/02/24 08:33:41;;;;;;;1999.90;999.90;;;9.20;99.90;;;;;;5048532;28;20029;-83
2024/02/24 08:36:07;;;;;;;1999.90;999.90;;;9.20;99.90;;;;;;5051877;28;20049;-79
2024/02/24 08:38:34;;;;;;;1999.90;999.90;;;9.10;99.90;;;;;;5049864;28;20124;-83
2024/02/24 08:41:00;;;;;;;1999.90;999.90;;;9.40;99.90;;;;;;5034972;28;20017;-79
2024/02/24 08:43:25;;;;;;;1999.90;999.90;;;9.70;99.90;;;;;;5036771;28;20033;-80
2024/02/24 08:45:51;;;;;;;1999.90;999.90;;;11.40;99.90;;;;;;5036013;28;20365;-80
2024/02/24 08:48:17;;;;;;;1999.90;999.90;;;14.00;99.90;;;;;;5035900;28;20168;-83
2024/02/24 08:50:42;;;;;;;1999.90;999.90;;;13.30;99.90;;;;;;5051303;28;20028;-83
2024/02/24 08:53:08;;;;;;;1999.90;999.90;;;11.90;99.90;;;;;;5051457;28;20029;-78
2024/02/24 08:55:34;;;;;;;1999.90;999.90;;;11.00;99.90;;;;;;5036487;28;20018;-83
2024/02/24 08:57:59;;;;;;;1999.90;999.90;;;10.40;99.90;;;;;;5050959;28;20028;-83
2024/02/24 09:00:25;;;;;;;1999.90;999.90;;;10.30;99.90;;;;;;5051209;28;20037;-79
2024/02/24 09:02:50;;;;;;;1999.90;999.90;;;10.20;99.90;;;;;;5051729;28;20078;-83
2024/02/24 09:05:16;;;;;;;1999.90;999.90;;;10.00;99.90;;;;;;5036131;28;20085;-82
2024/02/24 09:07:42;;;;;;;1999.90;999.90;;;9.70;99.90;;;;;;5051086;28;20484;-79
2024/02/24 09:10:08;;;;;;;1999.90;999.90;;;9.00;99.90;;;;;;5039158;28;20033;-79
2024/02/24 09:12:33;;;;;;;1999.90;999.90;;;8.40;99.90;;;;;;5051176;28;20036;-83
2024/02/24 09:14:59;;;;;;;1999.90;999.90;;;8.00;99.90;;;;;;5036583;28;20034;-83
2024/02/24 09:17:25;;;;;;;1999.90;999.90;;;7.50;99.90;;;;;;5057610;28;20049;-78
2024/02/24 09:19:50;;;;;;;1999.90;999.90;;;7.20;99.90;;;;;;5054366;28;20029;-83
2024/02/24 09:22:17;;;;;;;1999.90;999.90;;;7.10;99.90;;;;;;5056841;28;20037;-79
2024/02/24 09:24:42;;;;;;;1999.90;999.90;;;7.10;99.90;;;;;;5055352;28;20060;-83
2024/02/24 09:27:08;;;;;;;1999.90;999.90;;;7.00;99.90;;;;;;5055672;28;20060;-78
2024/02/24 09:29:34;;;;;;;1999.90;999.90;;;7.00;99.90;;;;;;5058431;28;20392;-79
2024/02/24 09:31:59;;;;;;;1999.90;999.90;;;7.00;99.90;;;;;;5055395;28;20036;-83
2024/02/24 09:34:25;;;;;;;1999.90;999.90;;;7.00;99.90;;;;;;5056851;28;20024;-83
2024/02/24 09:36:50;;;;;;;1999.90;999.90;;;7.10;99.90;;;;;;5068511;28;20074;-79
2024/02/24 09:39:16;;;;;;;1999.90;999.90;;;7.20;99.90;;;;;;5053921;28;20129;-83
2024/02/24 09:41:42;;;;;;;1999.90;999.90;;;7.30;99.90;;;;;;5053731;28;20491;-78
2024/02/24 09:44:11;;;;;;;1999.90;999.90;;;7.40;99.90;;;;;;5060139;28;20041;-83
2024/02/24 09:46:37;;;;;;;1999.90;999.90;;;7.40;99.90;;;;;;5055546;28;20028;-83
2024/02/24 09:49:04;;;;;;;1999.90;999.90;;;7.40;99.90;;;;;;5058569;28;20005;-81
2024/02/24 09:51:30;;;;;;;1999.90;999.90;;;7.40;99.90;;;;;;5054938;28;20123;-83
2024/02/24 09:53:57;;;;;;;1999.90;999.90;;;7.40;99.90;;;;;;5053995;28;20087;-83
2024/02/24 09:56:24;;;;;;;1999.90;999.90;;;7.50;99.90;;;;;;5055420;28;20028;-78
2024/02/24 09:58:53;;;;;;;1999.90;999.90;;;7.50;99.90;;;;;;5054768;28;20029;-78
2024/02/24 10:01:19;;;;;;;1999.90;999.90;;;7.70;99.90;;;;;;5053387;28;20029;-84
2024/02/24 10:03:46;;;;;;;1999.90;999.90;;;7.90;99.90;;;;;;5066520;28;20051;-83
2024/02/24 10:06:12;;;;;;;1999.90;999.90;;;8.30;99.90;;;;;;5053427;28;20127;-79
2024/02/24 10:08:38;;;;;;;1999.90;999.90;;;8.70;99.90;;;;;;5053250;28;20029;-83
2024/02/24 10:11:04;;;;;;;1999.90;999.90;;;8.90;99.90;;;;;;5056637;28;20486;-79
2024/02/24 10:13:35;;;;;;;1999.90;999.90;;;9.20;99.90;;;;;;5054996;28;20029;-83
2024/02/24 10:16:06;;;;;;;1999.90;999.90;;;9.80;99.90;;;;;;5054996;28;20074;-83
2024/02/24 10:18:32;;;;;;;1999.90;999.90;;;10.30;99.90;;;;;;5057176;28;20420;-79
2024/02/24 10:20:58;;;;;;;1999.90;999.90;;;10.40;99.90;;;;;;5054282;28;20028;-83
2024/02/24 10:23:24;;;;;;;1999.90;999.90;;;10.40;99.90;;;;;;5054469;28;20114;-84
2024/02/24 10:25:50;;;;;;;1999.90;999.90;;;10.50;99.90;;;;;;5054612;28;20021;-80
2024/02/24 10:28:16;;;;;;;1999.90;999.90;;;10.40;99.90;;;;;;5052955;28;20035;-79
2024/02/24 10:30:42;;;;;;;1999.90;999.90;;;10.10;99.90;;;;;;5060673;28;20025;-83
2024/02/24 10:33:09;;;;;;;1999.90;999.90;;;9.80;99.90;;;;;;5054114;28;20506;-79
2024/02/24 10:35:38;;;;;;;1999.90;999.90;;;9.90;99.90;;;;;;5054059;28;20429;-83
2024/02/24 10:38:04;;;;;;;1999.90;999.90;;;10.10;99.90;;;;;;5058702;28;20029;-83
2024/02/24 10:40:32;;;;;;;1999.90;999.90;;;10.30;99.90;;;;;;5052732;28;20025;-83
2024/02/24 10:42:59;;;;;;;1999.90;999.90;;;10.40;99.90;;;;;;5054697;28;20115;-81
2024/02/24 10:45:30;;;;;;;1999.90;999.90;;;10.20;99.90;;;;;;5052537;28;20116;-83
2024/02/24 10:47:58;;;;;;;1999.90;999.90;;;10.10;99.90;;;;;;5052292;28;20025;-83
2024/02/24 10:50:24;;;;;;;1999.90;999.90;;;9.60;99.90;;;;;;5055349;28;20039;-83
2024/02/24 10:52:51;;;;;;;1999.90;999.90;;;9.30;99.90;;;;;;5052624;28;20120;-82
2024/02/24 10:55:20;;;;;;;1999.90;999.90;;;9.30;99.90;;;;;;5052881;28;20553;-81
2024/02/24 10:57:53;;;;;;;1999.90;999.90;;;9.60;99.90;;;;;;5057688;28;20033;-79
2024/02/24 11:00:32;;;;;;;1999.90;999.90;;;9.60;99.90;;;;;;5052946;28;20036;-79
2024/02/24 11:02:59;;;;;;;1999.90;999.90;;;9.60;99.90;;;;;;5059226;28;20247;-80
2024/02/24 11:05:25;;;;;;;1999.90;999.90;;;9.80;99.90;;;;;;5055975;28;20122;-78
2024/02/24 11:07:51;;;;;;;1999.90;999.90;;;9.80;99.90;;;;;;5053419;28;20029;-83
2024/02/24 11:10:21;;;;;;;1999.90;999.90;;;9.70;99.90;;;;;;5058778;28;20020;-79
2024/02/24 11:12:51;;;;;;;1999.90;999.90;;;9.30;99.90;;;;;;5055045;28;20028;-83
2024/02/24 11:15:18;;;;;;;1999.90;999.90;;;9.10;99.90;;;;;;5051912;28;20029;-84
2024/02/24 11:17:50;;;;;;;1999.90;999.90;;;8.90;99.90;;;;;;5059837;28;20040;-79
2024/02/24 11:20:46;;;;;;;1999.90;999.90;;;8.50;99.90;;;;;;5055514;28;20476;-80
2024/02/24 11:23:32;;;;;;;1999.90;999.90;;;8.10;99.90;;;;;;5043381;28;20415;-83
2024/02/24 11:26:10;;;;;;;1999.90;999.90;;;7.90;99.90;;;;;;5054652;28;20040;-84
2024/02/24 11:28:41;;;;;;;1999.90;999.90;;;7.80;99.90;;;;;;5051628;28;20032;-81
2024/02/24 11:31:07;;;;;;;1999.90;999.90;;;7.80;99.90;;;;;;5052081;28;20033;-80
2024/02/24 11:33:38;;;;;;;1999.90;999.90;;;7.80;99.90;;;;;;5065555;28;20029;-84
2024/02/24 11:36:07;;;;;;;1999.90;999.90;;;7.80;99.90;;;;;;5051980;28;20053;-84
2024/02/24 11:38:33;;;;;;;1999.90;999.90;;;8.00;99.90;;;;;;5051821;28;20055;-81
2024/02/24 11:41:05;;;;;;;1999.90;999.90;;;8.70;99.90;;;;;;5062376;28;20108;-84
2024/02/24 11:43:32;;;;;;;1999.90;999.90;;;9.40;99.90;;;;;;5053354;28;20021;-81
2024/02/24 11:45:57;;;;;;;1999.90;999.90;;;9.80;99.90;;;;;;5051888;28;20399;-84
2024/02/24 11:48:23;;;;;;;1999.90;999.90;;;9.50;99.90;;;;;;5060418;28;20032;-85
2024/02/24 11:50:50;;;;;;;1999.90;999.90;;;9.90;99.90;;;;;;5053427;28;20166;-84
2024/02/24 11:53:17;;;;;;;1999.90;999.90;;;10.20;99.90;;;;;;5052007;28;20069;-81
2024/02/24 11:55:44;;;;;;;1999.90;999.90;;;10.60;99.90;;;;;;5053383;28;20064;-84
2024/02/24 11:58:10;;;;;;;1999.90;999.90;;;10.80;99.90;;;;;;5053423;28;20031;-81
2024/02/24 12:00:36;;;;;;;1999.90;999.90;;;10.80;99.90;;;;;;5057322;28;20044;-82
2024/02/24 12:03:13;;;;;;;1999.90;999.90;;;10.80;99.90;;;;;;5068588;28;20119;-83
2024/02/24 12:05:40;;;;;;;1999.90;999.90;;;10.90;99.90;;;;;;5051985;28;20040;-81